Time;durP1;ratioP1;P1;durP2;ratioP2;P2;SDS_P1;SDS_P2;PMS_P1;PMS_P2;Temp;Humidity;BMP_temperature;BMP_pressure;BME280_temperature;BME280_humidity;BME280_pressure;Samples;Min_cycle;Max_cycle;Signal;HPM_P1;HPM_P2
2022/10/12 02:29:01;;;;;;;;;89.75;82.25;;;;;20.02;64.77;99999.13;5026483;28;10000;-78
2022/10/12 02:31:36;;;;;;;;;82.25;73.25;;;;;20.07;64.89;99996.34;4993345;28;10078;-79
2022/10/12 02:34:10;;;;;;;;;88.50;82.00;;;;;20.14;64.64;100008.47;5019277;28;10329;-78
2022/10/12 02:36:46;;;;;;;;;84.50;78.75;;;;;20.03;64.97;100007.94;5019187;28;10968;-78
2022/10/12 02:39:19;;;;;;;;;84.00;73.75;;;;;19.99;64.86;100009.81;5036915;28;10151;-78
2022/10/12 02:41:55;;;;;;;;;86.50;80.00;;;;;19.92;65.16;100015.34;4952735;28;10157;-80
2022/10/12 02:44:29;;;;;;;;;86.50;80.75;;;;;20.01;64.90;100017.72;5031907;28;10154;-79
2022/10/12 02:47:03;;;;;;;;;88.75;76.00;;;;;20.06;65.04;100007.84;4996297;28;10244;-79
2022/10/12 02:49:34;;;;;;;;;81.50;76.50;;;;;19.98;65.28;100009.84;5012384;28;11206;-79
2022/10/12 02:52:06;;;;;;;;;83.00;79.75;;;;;20.02;64.82;100012.38;4979637;28;10509;-79
2022/10/12 02:54:36;;;;;;;;;83.25;74.50;;;;;20.10;64.66;100008.63;5011825;28;10404;-79
2022/10/12 02:57:05;;;;;;;;;90.00;77.25;;;;;20.13;64.42;100009.41;5028118;28;10098;-80
2022/10/12 02:59:35;;;;;;;;;80.00;74.00;;;;;19.98;64.52;100002.81;5028452;28;10304;-80
2022/10/12 03:02:03;;;;;;;;;81.50;74.75;;;;;19.99;64.50;100003.66;5028323;28;10052;-80
2022/10/12 03:04:34;;;;;;;;;79.25;68.00;;;;;20.03;64.61;100010.59;4990698;28;12549;-79
2022/10/12 03:07:03;;;;;;;;;86.75;82.25;;;;;20.01;64.49;100007.13;4997397;28;9726;-80
2022/10/12 03:09:32;;;;;;;;;82.50;75.25;;;;;19.99;64.63;100008.97;5010973;28;10170;-78
2022/10/12 03:12:00;;;;;;;;;88.00;76.75;;;;;20.02;64.65;100007.09;5008930;28;10143;-78
2022/10/12 03:14:31;;;;;;;;;91.50;81.00;;;;;20.09;64.41;100010.38;5008250;28;10072;-78
2022/10/12 03:17:01;;;;;;;;;83.75;76.75;;;;;20.13;64.36;100000.56;5008635;28;10245;-81
2022/10/12 03:19:30;;;;;;;;;85.75;78.00;;;;;20.03;64.46;100008.81;4990823;28;10793;-78
2022/10/12 03:21:59;;;;;;;;;88.50;77.50;;;;;19.99;64.59;100003.66;4994110;28;10159;-79
2022/10/12 03:24:28;;;;;;;;;85.00;75.00;;;;;19.88;65.12;100008.44;5016177;28;9988;-78
2022/10/12 03:26:57;;;;;;;;;83.75;74.50;;;;;19.77;65.49;99998.16;4995082;28;9971;-80
2022/10/12 03:29:25;;;;;;;;;84.75;77.50;;;;;19.82;65.30;99998.91;4996264;28;10166;-80
2022/10/12 03:31:54;;;;;;;;;85.50;76.25;;;;;19.85;65.32;100001.47;5025672;28;10216;-79
2022/10/12 03:34:24;;;;;;;;;79.75;74.00;;;;;19.94;65.30;100001.16;5025884;28;10215;-78
2022/10/12 03:36:53;;;;;;;;;83.25;76.25;;;;;20.02;64.79;100001.78;5024980;28;10237;-77
2022/10/12 03:39:21;;;;;;;;;86.25;78.00;;;;;19.92;65.11;100004.78;5025237;28;11021;-78
2022/10/12 03:41:50;;;;;;;;;78.75;69.50;;;;;19.93;65.14;100004.72;5025283;28;10363;-79
2022/10/12 03:44:18;;;;;;;;;83.00;76.00;;;;;20.02;64.81;100001.78;5029282;28;10122;-78
2022/10/12 03:46:47;;;;;;;;;79.00;70.75;;;;;20.01;64.65;99994.75;5007791;28;10043;-80
2022/10/12 03:49:15;;;;;;;;;82.75;76.50;;;;;20.02;64.66;100001.78;5023901;28;9950;-78
2022/10/12 03:51:45;;;;;;;;;90.50;84.00;;;;;19.95;65.07;99996.75;5024115;28;9922;-79
2022/10/12 03:54:14;;;;;;;;;82.50;75.75;;;;;19.93;64.83;99999.44;5043463;28;10849;-79
2022/10/12 03:56:43;;;;;;;;;86.00;76.25;;;;;19.92;65.05;100000.34;5044392;28;9944;-77
2022/10/12 03:59:11;;;;;;;;;85.75;76.75;;;;;19.91;65.04;100001.25;5043068;28;10320;-80
2022/10/12 04:01:40;;;;;;;;;91.25;80.00;;;;;19.91;65.16;99998.63;5044361;28;10144;-79
2022/10/12 04:04:10;;;;;;;;;85.75;78.50;;;;;19.96;65.05;100002.00;5044156;28;10253;-79
2022/10/12 04:06:38;;;;;;;;;86.50;77.75;;;;;20.00;64.80;99997.44;5044327;28;10231;-81
2022/10/12 04:09:08;;;;;;;;;83.50;76.50;;;;;20.09;64.63;99997.16;5044153;28;10109;-79
2022/10/12 04:11:37;;;;;;;;;82.00;71.75;;;;;20.10;64.36;100006.84;5024718;28;10216;-78
2022/10/12 04:14:06;;;;;;;;;82.00;71.25;;;;;20.16;64.08;100008.41;5009786;28;9982;-79
2022/10/12 04:16:34;;;;;;;;;80.00;75.00;;;;;20.09;64.32;100006.88;5044393;28;9905;-79
2022/10/12 04:19:03;;;;;;;;;81.75;74.25;;;;;20.09;64.39;100009.53;5043630;28;10048;-80
2022/10/12 04:21:32;;;;;;;;;84.50;78.75;;;;;20.15;64.04;100007.56;5010904;28;9909;-78
2022/10/12 04:24:00;;;;;;;;;83.50;75.00;;;;;20.20;63.78;100010.91;5010702;28;9804;-79
2022/10/12 04:26:31;;;;;;;;;77.00;65.25;;;;;19.98;64.45;100009.84;5046341;28;10523;-77
2022/10/12 04:28:59;;;;;;;;;84.00;70.50;;;;;20.02;64.32;100011.53;5013076;28;9807;-79
2022/10/12 04:31:27;;;;;;;;;78.75;70.25;;;;;19.71;65.37;100017.72;5004549;28;10025;-79
2022/10/12 04:33:57;;;;;;;;;77.75;69.00;;;;;19.72;65.13;100022.16;5007793;28;10624;-79
2022/10/12 04:36:26;;;;;;;;;80.50;73.75;;;;;19.68;65.53;100018.69;4990625;28;9762;-80
2022/10/12 04:38:55;;;;;;;;;80.50;71.25;;;;;19.78;65.05;100021.94;5008493;28;9800;-79
2022/10/12 04:41:28;;;;;;;;;85.00;75.25;;;;;19.85;65.00;100015.56;4989826;28;11046;-79
2022/10/12 04:43:58;;;;;;;;;83.50;71.00;;;;;19.90;64.57;100022.47;5022543;28;10237;-82
2022/10/12 04:46:27;;;;;;;;;82.00;77.00;;;;;19.97;64.61;100021.38;5007730;28;9875;-79
2022/10/12 04:48:55;;;;;;;;;80.25;69.00;;;;;19.91;64.49;100027.72;5009204;28;10026;-79
2022/10/12 04:51:24;;;;;;;;;86.25;77.50;;;;;19.95;64.44;100024.06;5025094;28;9667;-79
2022/10/12 04:53:53;;;;;;;;;89.75;80.50;;;;;19.95;64.61;100025.88;5015567;28;9850;-78
2022/10/12 04:56:21;;;;;;;;;87.75;79.75;;;;;19.97;64.58;100030.19;5021389;28;10391;-79
2022/10/12 04:58:50;;;;;;;;;81.75;72.25;;;;;20.03;64.30;100027.34;5012574;28;10148;-80
2022/10/12 05:01:20;;;;;;;;;82.00;74.25;;;;;20.10;64.13;100027.16;5013810;28;10094;-79
2022/10/12 05:03:48;;;;;;;;;81.25;75.75;;;;;20.09;64.14;100031.56;4964475;28;10007;-79
2022/10/12 05:06:17;;;;;;;;;76.25;68.25;;;;;19.94;64.43;100035.56;4991030;28;10295;-80
2022/10/12 05:08:46;;;;;;;;;84.25;73.00;;;;;19.92;64.39;100031.25;5005016;28;9878;-79
2022/10/12 05:11:15;;;;;;;;;77.75;67.25;;;;;19.94;64.17;100034.69;5025588;28;9673;-79
2022/10/12 05:13:43;;;;;;;;;81.50;74.25;;;;;19.98;64.33;100033.69;4993603;28;10618;-79
2022/10/12 05:16:12;;;;;;;;;79.50;69.25;;;;;19.86;64.59;100037.59;4995003;28;9849;-79
2022/10/12 05:18:42;;;;;;;;;79.25;72.00;;;;;19.94;64.52;100035.56;5011623;28;9491;-82
2022/10/12 05:21:11;;;;;;;;;78.25;68.50;;;;;20.03;64.00;100045.00;5025574;28;9734;-79
2022/10/12 05:23:39;;;;;;;;;78.50;69.75;;;;;20.07;64.01;100044.00;5010557;28;9646;-80
2022/10/12 05:26:08;;;;;;;;;77.00;66.50;;;;;20.10;63.65;100045.69;5011951;28;9893;-79
2022/10/12 05:28:37;;;;;;;;;75.50;64.25;;;;;20.11;63.50;100044.75;5011025;28;9560;-80
2022/10/12 05:31:08;;;;;;;;;78.50;65.75;;;;;20.11;63.42;100044.75;5035857;28;9615;-79
2022/10/12 05:33:37;;;;;;;;;77.67;66.67;;;;;20.19;63.25;100054.22;4995291;28;9648;-79
2022/10/12 05:36:08;;;;;;;;;75.00;64.75;;;;;20.19;63.35;100046.25;5041431;28;9386;-82
2022/10/12 05:38:37;;;;;;;;;75.67;64.33;;;;;20.25;63.07;100056.66;5030973;28;9553;-79
2022/10/12 05:41:06;;;;;;;;;83.00;74.50;;;;;20.05;63.64;100054.63;5049469;28;9566;-80
2022/10/12 05:43:34;;;;;;;;;78.67;66.33;;;;;20.06;63.58;100058.16;5049959;28;9627;-79
2022/10/12 05:46:03;;;;;;;;;79.25;71.00;;;;;20.15;63.62;100062.28;5051009;28;9698;-78
2022/10/12 05:48:32;;;;;;;;;78.75;70.25;;;;;20.05;63.60;100062.56;5050070;28;9764;-80
2022/10/12 05:51:00;;;;;;;;;77.75;67.75;;;;;20.03;63.48;100067.03;5061575;28;9656;-78
2022/10/12 05:53:31;;;;;;;;;77.75;70.00;;;;;19.78;64.52;100077.53;5032762;28;9532;-77
2022/10/12 05:56:01;;;;;;;;;77.00;67.00;;;;;19.58;65.19;100077.22;5049078;28;9468;-78
2022/10/12 05:58:30;;;;;;;;;80.50;74.00;;;;;19.65;64.72;100090.22;5048567;28;9708;-76
2022/10/12 06:01:05;;;;;;;;;77.75;68.25;;;;;19.37;66.07;100082.19;5049471;28;9718;-78
2022/10/12 06:03:34;;;;;;;;;77.75;65.75;;;;;19.26;66.89;100081.63;5048857;28;10475;-76
2022/10/12 06:06:05;;;;;;;;;72.00;55.33;;;;;19.44;65.89;100088.19;5050199;28;9758;-78
2022/10/12 06:08:35;;;;;;;;;77.75;69.25;;;;;19.65;65.38;100087.56;5030961;28;9402;-77
2022/10/12 06:11:05;;;;;;;;;75.67;63.67;;;;;19.80;64.85;100083.63;5047655;28;9622;-77
2022/10/12 06:13:33;;;;;;;;;78.00;65.67;;;;;19.92;64.50;100085.03;5048758;28;9463;-81
2022/10/12 06:16:02;;;;;;;;;77.33;68.67;;;;;20.04;64.08;100089.13;5048091;28;9412;-77
2022/10/12 06:18:31;;;;;;;;;74.00;66.00;;;;;20.11;63.88;100090.63;5050197;28;9328;-75
2022/10/12 06:21:00;;;;;;;;;76.50;68.25;;;;;20.23;63.47;100094.69;5050562;28;9505;-79
2022/10/12 06:23:50;;;;;;;;;74.33;62.67;;;;;20.31;63.23;100095.31;5031220;28;9574;-80
2022/10/12 06:26:20;;;;;;;;;79.75;69.50;;;;;20.40;62.84;100102.97;5049911;28;9439;-78
2022/10/12 06:28:48;;;;;;;;;77.25;68.50;;;;;20.18;63.50;100102.78;5048901;28;10573;-78
2022/10/12 06:31:17;;;;;;;;;77.00;67.75;;;;;20.23;63.34;100098.22;5048065;28;9873;-77
2022/10/12 06:33:46;;;;;;;;;79.33;66.67;;;;;20.34;63.14;100094.34;5014429;28;9638;-78
2022/10/12 06:36:15;;;;;;;;;78.50;70.00;;;;;20.37;63.08;100099.56;5047912;28;10145;-79
2022/10/12 06:38:43;;;;;;;;;73.33;63.33;;;;;20.45;62.82;100106.34;5008540;28;12691;-81
2022/10/12 06:41:13;;;;;;;;;79.25;72.00;;;;;20.52;62.42;100108.78;5069068;28;9561;-81
2022/10/12 06:43:42;;;;;;;;;75.00;61.67;;;;;20.59;62.10;100115.63;5067762;28;9786;-78
2022/10/12 06:46:11;;;;;;;;;72.67;60.00;;;;;20.66;61.83;100108.38;5070440;28;9456;-79
2022/10/12 06:48:40;;;;;;;;;76.00;66.75;;;;;20.64;62.03;100111.06;5052280;28;9472;-79
2022/10/12 06:51:09;;;;;;;;;78.00;67.00;;;;;20.72;61.68;100117.00;5067510;28;9954;-78
2022/10/12 06:53:37;;;;;;;;;80.00;69.50;;;;;20.79;61.53;100115.88;5068580;28;9473;-79
2022/10/12 06:56:06;;;;;;;;;81.25;71.25;;;;;20.90;61.30;100109.34;5070080;28;9566;-79
2022/10/12 06:58:36;;;;;;;;;76.50;68.25;;;;;20.88;61.36;100109.38;5069091;28;9580;-79
2022/10/12 07:01:07;;;;;;;;;77.00;66.25;;;;;20.95;61.05;100112.72;5069024;28;9626;-79
2022/10/12 07:03:37;;;;;;;;;80.25;72.75;;;;;21.02;60.82;100115.09;5050941;28;9779;-80
2022/10/12 07:06:08;;;;;;;;;77.75;69.00;;;;;21.09;60.40;100110.41;5068853;28;9641;-79
2022/10/12 07:08:37;;;;;;;;;76.50;67.25;;;;;20.99;60.59;100112.53;5051679;28;9538;-78
2022/10/12 07:11:08;;;;;;;;;79.25;71.50;;;;;20.39;62.60;100122.41;5068494;28;9677;-79
2022/10/12 07:13:39;;;;;;;;;81.50;75.25;;;;;20.29;63.49;100123.63;5052353;28;10095;-80
2022/10/12 07:16:08;;;;;;;;;79.75;74.75;;;;;20.58;62.53;100122.69;5069072;28;10247;-80
2022/10/12 07:18:38;;;;;;;;;79.75;74.00;;;;;20.70;61.97;100121.47;5068824;28;9887;-77
2022/10/12 07:21:07;;;;;;;;;79.75;71.50;;;;;20.39;63.20;100111.81;5070786;28;10047;-78
2022/10/12 07:23:37;;;;;;;;;81.25;69.50;;;;;20.69;62.22;100124.19;5069771;28;9822;-79
2022/10/12 07:26:12;;;;;;;;;80.00;73.50;;;;;20.71;62.04;100117.91;5068937;28;10225;-79
2022/10/12 07:28:42;;;;;;;;;78.75;72.50;;;;;20.88;61.67;100104.06;5071491;28;9963;-78
2022/10/12 07:31:11;;;;;;;;;82.50;74.75;;;;;21.03;61.06;100110.66;5086773;28;9667;-78
2022/10/12 07:33:40;;;;;;;;;80.75;71.25;;;;;21.20;60.44;100115.38;5086005;28;9900;-76
2022/10/12 07:36:09;;;;;;;;;79.75;75.50;;;;;21.21;60.44;100111.81;5068800;28;9964;-78
2022/10/12 07:38:44;;;;;;;;;79.50;71.25;;;;;21.30;60.21;100111.44;5065145;28;9919;-78
2022/10/12 07:41:13;;;;;;;;;85.50;79.25;;;;;21.28;60.26;100107.97;5075118;28;10059;-75
2022/10/12 07:43:43;;;;;;;;;86.25;76.25;;;;;21.33;60.12;100103.38;5038935;28;10428;-78
2022/10/12 07:46:12;;;;;;;;;76.50;68.00;;;;;21.25;60.32;100113.41;5071188;28;10296;-78
2022/10/12 07:48:41;;;;;;;;;78.75;73.75;;;;;21.34;60.14;100110.44;5069812;28;10044;-75
2022/10/12 07:51:17;;;;;;;;;80.25;75.00;;;;;21.52;59.56;100103.63;5071670;28;10053;-76
2022/10/12 07:53:46;;;;;;;;;80.50;74.00;;;;;21.43;59.67;100104.78;5088635;28;9992;-79
2022/10/12 07:56:15;;;;;;;;;81.50;76.25;;;;;21.39;59.90;100099.66;5053299;28;10048;-78
2022/10/12 07:58:48;;;;;;;;;81.75;75.00;;;;;21.52;59.71;100103.63;5067281;28;10443;-76
2022/10/12 08:01:19;;;;;;;;;77.00;70.50;;;;;21.63;59.45;100100.56;5064232;28;10233;-76
2022/10/12 08:03:48;;;;;;;;;79.00;71.50;;;;;21.65;59.08;100104.03;5020585;28;10205;-77
2022/10/12 08:06:19;;;;;;;;;81.50;72.75;;;;;21.72;58.80;100097.59;5016663;28;10863;-78
2022/10/12 08:08:49;;;;;;;;;85.75;79.75;;;;;21.61;59.15;100094.47;4974280;28;10226;-77
2022/10/12 08:11:19;;;;;;;;;82.25;79.25;;;;;21.64;59.21;100096.13;5006522;28;10618;-77
2022/10/12 08:13:49;;;;;;;;;83.75;75.00;;;;;21.75;59.01;100102.75;5006863;28;10637;-80
2022/10/12 08:16:20;;;;;;;;;79.75;75.50;;;;;21.88;58.44;100094.34;5008487;28;10254;-80
2022/10/12 08:18:49;;;;;;;;;83.75;77.50;;;;;22.00;58.33;100094.75;4980891;28;10442;-77
2022/10/12 08:21:18;;;;;;;;;79.25;73.00;;;;;22.07;58.08;100083.88;4975620;28;10313;-80
2022/10/12 08:23:47;;;;;;;;;88.00;81.50;;;;;21.97;58.13;100081.56;5009844;28;10422;-77
2022/10/12 08:26:18;;;;;;;;;81.00;78.00;;;;;22.18;57.79;100087.81;5006775;28;10554;-77
2022/10/12 08:28:46;;;;;;;;;82.00;75.50;;;;;22.15;57.26;100085.28;5008994;28;10414;-80
2022/10/12 08:31:18;;;;;;;;;85.75;80.00;;;;;21.92;57.71;100080.88;5031869;28;10635;-78
2022/10/12 08:33:46;;;;;;;;;82.75;79.00;;;;;21.49;59.08;100092.25;5029516;28;10557;-78
2022/10/12 08:36:15;;;;;;;;;79.50;75.00;;;;;21.46;59.30;100087.94;5086474;28;10519;-81
2022/10/12 08:38:47;;;;;;;;;83.00;78.00;;;;;21.48;59.38;100091.38;5068768;28;10405;-79
2022/10/12 08:41:28;;;;;;;;;90.00;81.75;;;;;21.41;59.76;100087.19;5085998;28;11390;-79
2022/10/12 08:44:07;;;;;;;;;84.75;77.50;;;;;21.19;60.87;100092.41;5069457;28;10853;-78
2022/10/12 08:46:39;;;;;;;;;85.75;79.25;;;;;21.50;60.08;100088.69;5049048;28;10741;-76
2022/10/12 08:49:15;;;;;;;;;84.75;80.75;;;;;21.64;59.00;100094.31;5065729;28;11702;-74
2022/10/12 08:51:49;;;;;;;;;90.50;84.50;;;;;21.19;60.92;100090.63;5064478;28;10633;-71
2022/10/12 08:54:20;;;;;;;;;88.75;80.75;;;;;21.61;59.66;100083.84;5064635;28;11059;-72
2022/10/12 08:56:53;;;;;;;;;84.25;80.00;;;;;21.94;58.85;100081.66;5064712;28;11003;-71
2022/10/12 08:59:22;;;;;;;;;84.75;76.75;;;;;22.04;57.93;100079.56;5065910;28;10508;-73
2022/10/12 09:02:07;;;;;;;;;79.00;73.75;;;;;22.27;57.65;100075.13;5059836;28;10709;-72
2022/10/12 09:04:48;;;;;;;;;82.00;78.50;;;;;22.35;56.92;100081.84;5026194;28;10538;-73
2022/10/12 09:07:20;;;;;;;;;87.00;81.25;;;;;21.32;59.86;100079.56;5045280;28;10422;-75
2022/10/12 09:10:02;;;;;;;;;87.00;78.00;;;;;21.47;60.06;100075.53;5030222;28;10743;-75
2022/10/12 09:12:50;;;;;;;;;83.75;80.50;;;;;21.52;59.63;100073.56;5046483;28;10621;-74
2022/10/12 09:15:23;;;;;;;;;94.75;83.00;;;;;21.54;59.79;100072.56;5047311;28;10688;-71
2022/10/12 09:17:55;;;;;;;;;78.00;74.75;;;;;21.87;59.26;100069.59;5033296;28;11245;-73
2022/10/12 09:20:28;;;;;;;;;82.75;77.75;;;;;22.13;58.69;100073.84;5045821;28;10217;-72
2022/10/12 09:23:06;;;;;;;;;83.50;76.50;;;;;22.17;57.81;100072.81;5047028;28;10399;-72
2022/10/12 09:25:35;;;;;;;;;84.25;78.75;;;;;22.03;58.53;100071.63;5046962;28;10384;-70
2022/10/12 09:28:13;;;;;;;;;84.25;77.00;;;;;22.43;57.32;100067.41;5045048;28;10709;-70
2022/10/12 09:30:58;;;;;;;;;83.75;73.00;;;;;22.70;56.36;100062.72;4987709;28;10157;-73
2022/10/12 09:33:33;;;;;;;;;80.00;71.50;;;;;22.84;55.60;100064.81;4979721;28;10111;-71
2022/10/12 09:36:01;;;;;;;;;83.50;73.25;;;;;22.50;55.65;100069.75;5043438;28;9587;-69
2022/10/12 09:38:30;;;;;;;;;80.00;71.00;;;;;22.74;55.25;100075.81;5047128;28;9969;-71
2022/10/12 09:40:59;;;;;;;;;78.75;66.25;;;;;23.04;54.73;100075.44;5011290;28;9637;-71
2022/10/12 09:43:28;;;;;;;;;69.25;54.00;;;;;23.21;52.58;100073.84;5028514;28;9597;-72
2022/10/12 09:46:14;;;;;;;;;71.33;56.33;;;;;23.51;52.04;100072.47;5046231;28;8849;-73
2022/10/12 09:48:58;;;;;;;;;75.00;57.67;;;;;23.64;51.38;100077.25;5050974;28;8960;-75
2022/10/12 09:51:28;;;;;;;;;56.50;47.25;;;;;23.69;48.96;100069.91;5051049;28;9092;-72
2022/10/12 09:54:02;;;;;;;;;54.50;44.25;;;;;23.75;47.18;100070.47;5031447;28;8869;-73
2022/10/12 09:56:39;;;;;;;;;58.50;46.00;;;;;23.99;46.25;100069.41;5050344;28;8974;-73
2022/10/12 09:59:24;;;;;;;;;51.50;42.25;;;;;24.12;46.80;100074.09;5050532;28;8825;-72
2022/10/12 10:02:12;;;;;;;;;55.25;45.00;;;;;24.25;46.01;100060.16;5050708;28;8911;-72
2022/10/12 10:04:43;;;;;;;;;63.00;49.50;;;;;24.21;46.41;100070.13;5032673;28;8861;-75
2022/10/12 10:07:22;;;;;;;;;53.25;44.50;;;;;24.27;46.10;100074.28;5029397;28;8896;-74
2022/10/12 10:10:09;;;;;;;;;56.25;45.50;;;;;24.45;46.15;100060.06;5054250;28;8845;-72
2022/10/12 10:12:42;;;;;;;;;57.00;46.50;;;;;24.47;45.78;100065.31;5052697;28;9560;-72
2022/10/12 10:15:20;;;;;;;;;54.75;43.75;;;;;24.56;45.33;100062.22;5051753;28;8957;-74
2022/10/12 10:17:52;;;;;;;;;52.25;42.50;;;;;24.56;45.17;100058.69;5047961;28;8895;-75
2022/10/12 10:20:28;;;;;;;;;50.25;41.50;;;;;24.63;43.86;100054.75;5051291;28;8869;-73
2022/10/12 10:22:58;;;;;;;;;55.00;44.50;;;;;24.64;43.72;100054.69;5044210;28;9995;-72
2022/10/12 10:25:27;;;;;;;;;46.50;37.75;;;;;24.77;42.83;100054.06;5052670;28;8891;-80
2022/10/12 10:28:22;;;;;;;;;42.00;36.50;;;;;25.00;42.33;100044.88;5051527;28;8887;-79
2022/10/12 10:31:02;;;;;;;;;44.25;38.00;;;;;25.02;42.26;100046.50;5051191;28;8873;-79
2022/10/12 10:33:32;;;;;;;;;43.75;37.00;;;;;25.02;42.08;100045.66;5049711;28;9023;-80
2022/10/12 10:36:18;;;;;;;;;44.00;38.00;;;;;25.12;42.42;100038.88;5033204;28;8852;-79
2022/10/12 10:38:56;;;;;;;;;40.25;34.25;;;;;25.36;42.26;100038.56;5051247;28;9008;-79
2022/10/12 10:41:28;;;;;;;;;47.50;40.00;;;;;25.42;42.26;100038.22;5049543;28;8861;-81
2022/10/12 10:43:57;;;;;;;;;49.00;40.25;;;;;25.64;42.19;100035.25;5013790;28;9002;-81
2022/10/12 10:46:30;;;;;;;;;50.75;41.00;;;;;25.47;42.43;100038.84;4994797;28;8854;-78
2022/10/12 10:49:05;;;;;;;;;37.00;32.50;;;;;25.61;41.86;100043.41;5038563;28;8891;-78
2022/10/12 10:51:49;;;;;;;;;45.25;37.75;;;;;25.76;41.74;100042.56;5050224;28;8861;-79
2022/10/12 10:54:27;;;;;;;;;48.75;39.75;;;;;25.87;40.82;100044.66;5048189;28;8888;-77
2022/10/12 10:57:01;;;;;;;;;50.50;42.00;;;;;25.90;40.17;100046.28;5036228;28;8934;-77
2022/10/12 10:59:41;;;;;;;;;54.00;43.75;;;;;26.05;40.71;100046.31;5022969;28;8887;-79
2022/10/12 11:02:23;;;;;;;;;48.00;40.50;;;;;25.94;40.01;100039.88;5028574;28;8855;-78
2022/10/12 11:05:00;;;;;;;;;44.50;37.75;;;;;26.04;39.86;100039.22;5011530;28;8949;-74
2022/10/12 11:07:36;;;;;;;;;39.00;34.75;;;;;26.17;39.70;100036.72;5038845;28;8861;-76
2022/10/12 11:10:15;;;;;;;;;44.25;37.75;;;;;26.32;39.09;100034.97;5045702;28;8907;-74
2022/10/12 11:12:49;;;;;;;;;46.25;39.25;;;;;26.50;39.03;100032.19;5045897;28;8862;-76
2022/10/12 11:15:24;;;;;;;;;39.75;34.50;;;;;26.50;38.67;100037.53;5045371;28;8878;-76
2022/10/12 11:18:02;;;;;;;;;41.25;35.50;;;;;26.71;38.67;100035.41;5005352;28;8855;-75
2022/10/12 11:20:41;;;;;;;;;46.75;38.25;;;;;26.86;38.80;100039.84;5006186;28;8986;-77
2022/10/12 11:23:22;;;;;;;;;48.00;39.67;;;;;26.21;38.90;100038.28;4989785;28;8843;-77
2022/10/12 11:26:01;;;;;;;;;49.75;41.75;;;;;25.92;39.12;100047.06;5006285;28;8856;-74
2022/10/12 11:28:33;;;;;;;;;45.50;38.75;;;;;24.46;41.30;100039.56;5005216;28;8934;-74
2022/10/12 11:31:02;;;;;;;;;46.25;40.00;;;;;23.94;42.77;100040.34;4957285;28;8893;-74
2022/10/12 11:33:37;;;;;;;;;43.75;36.75;;;;;24.49;42.12;100031.44;4989563;28;9013;-74
2022/10/12 11:36:08;;;;;;;;;41.00;35.00;;;;;24.87;41.75;100040.16;5005923;28;9053;-77
2022/10/12 11:38:44;;;;;;;;;46.50;38.50;;;;;25.27;41.28;100027.44;5005749;28;10076;-75
2022/10/12 11:41:20;;;;;;;;;67.00;53.00;;;;;24.39;44.83;100028.38;5015120;28;8871;-75
2022/10/12 11:44:12;;;;;;;;;64.75;52.00;;;;;24.23;45.26;100030.91;5025679;28;9028;-77
2022/10/12 11:46:47;;;;;;;;;67.25;53.50;;;;;23.57;47.27;100035.84;5025590;28;8871;-75
2022/10/12 11:49:24;;;;;;;;;65.50;49.75;;;;;22.96;49.37;100024.38;5037434;28;8895;-76
2022/10/12 11:51:57;;;;;;;;;63.25;51.25;;;;;22.86;49.58;100031.03;4995830;28;8873;-74
2022/10/12 11:54:35;;;;;;;;;69.00;53.33;;;;;23.08;48.93;100022.97;5046306;28;8901;-76
2022/10/12 11:57:10;;;;;;;;;66.33;53.67;;;;;23.09;48.88;100025.56;5047954;28;9106;-75
2022/10/12 11:59:44;;;;;;;;;68.00;53.00;;;;;22.31;50.73;100034.22;5047170;28;8946;-75
2022/10/12 12:02:20;;;;;;;;;65.67;53.33;;;;;22.44;50.79;100030.13;5044513;28;8865;-75
2022/10/12 12:04:49;;;;;;;;;60.50;48.25;;;;;22.87;49.15;100030.97;5029843;28;9132;-76
2022/10/12 12:07:47;;;;;;;;;63.75;49.75;;;;;23.53;47.35;100027.16;5047922;28;8852;-75
2022/10/12 12:10:53;;;;;;;;;62.25;50.50;;;;;23.68;46.86;100029.09;5047473;28;8857;-75
2022/10/12 12:13:25;;;;;;;;;58.75;48.00;;;;;24.15;45.96;100017.13;5046317;28;8861;-76
2022/10/12 12:16:34;;;;;;;;;58.75;47.75;;;;;24.67;45.19;100024.34;5048061;28;8907;-75
2022/10/12 12:19:41;;;;;;;;;59.75;49.25;;;;;24.71;43.40;100023.25;5047696;28;9664;-74
2022/10/12 12:22:23;;;;;;;;;58.50;46.25;;;;;24.88;42.77;100025.91;4985172;28;8977;-75
2022/10/12 12:25:02;;;;;;;;;57.50;45.50;;;;;25.08;42.66;100018.63;4923324;28;9015;-75
2022/10/12 12:27:38;;;;;;;;;50.75;42.25;;;;;25.21;41.95;100017.03;4985370;28;8902;-75
2022/10/12 12:30:39;;;;;;;;;52.50;44.75;;;;;25.27;41.64;100018.53;4953041;28;8856;-75
2022/10/12 12:33:28;;;;;;;;;53.50;44.00;;;;;25.51;41.42;100026.19;4968930;28;8889;-74
2022/10/12 12:36:00;;;;;;;;;52.75;43.25;;;;;25.43;41.88;100021.25;4984081;28;8905;-74
2022/10/12 12:38:31;;;;;;;;;50.75;40.50;;;;;25.42;40.98;100023.06;4984601;28;9662;-74
2022/10/12 12:41:04;;;;;;;;;47.75;38.00;;;;;25.58;40.87;100022.25;4985502;28;8858;-76
2022/10/12 12:43:51;;;;;;;;;47.25;39.75;;;;;25.62;40.18;100019.28;4985689;28;8893;-72
2022/10/12 12:46:22;;;;;;;;;51.75;42.25;;;;;25.47;40.10;100017.47;4985838;28;8999;-76
2022/10/12 12:48:58;;;;;;;;;56.25;44.50;;;;;25.63;40.39;100018.38;4993940;28;8867;-75
2022/10/12 12:51:36;;;;;;;;;51.25;43.25;;;;;25.75;39.65;100019.47;4940913;28;8871;-73
2022/10/12 12:54:12;;;;;;;;;50.00;39.50;;;;;25.70;40.12;100015.34;5004145;28;8875;-74
2022/10/12 12:56:50;;;;;;;;;45.75;39.50;;;;;25.78;39.66;100010.41;4992461;28;9072;-74
2022/10/12 12:59:58;;;;;;;;;47.25;38.25;;;;;26.12;40.06;100019.22;5035518;28;8916;-75
2022/10/12 13:02:51;;;;;;;;;46.75;38.75;;;;;26.15;39.01;100017.25;4990252;28;9637;-72
2022/10/12 13:05:50;;;;;;;;;45.75;39.25;;;;;26.18;38.98;100017.06;4972430;28;8884;-73
2022/10/12 13:08:31;;;;;;;;;49.50;41.75;;;;;26.18;38.76;100016.19;4947063;28;9664;-74
2022/10/12 13:11:27;;;;;;;;;47.50;40.50;;;;;26.21;38.98;100016.03;4946984;29;8923;-74
2022/10/12 13:14:05;;;;;;;;;47.50;39.25;;;;;26.15;39.14;100017.25;4947281;29;8864;-75
2022/10/12 13:16:54;;;;;;;;;48.00;40.00;;;;;26.23;39.44;100023.00;4930952;29;8923;-75
2022/10/12 13:19:45;;;;;;;;;53.50;43.75;;;;;26.12;38.84;100014.72;4932102;28;8868;-74
2022/10/12 13:22:20;;;;;;;;;54.25;45.00;;;;;25.91;39.00;100007.94;4934863;28;8907;-74
2022/10/12 13:24:53;;;;;;;;;48.75;40.50;;;;;25.90;39.76;100009.75;4950706;28;8872;-74
2022/10/12 13:27:29;;;;;;;;;46.50;39.75;;;;;25.94;39.08;100011.31;4950906;28;8903;-73
2022/10/12 13:30:03;;;;;;;;;47.50;40.25;;;;;26.00;39.23;100010.09;4950137;28;8919;-75
2022/10/12 13:32:41;;;;;;;;;48.25;40.50;;;;;26.02;38.72;100005.53;4950717;28;8853;-74
2022/10/12 13:35:17;;;;;;;;;47.00;40.00;;;;;26.03;38.86;100012.59;4950545;28;8943;-73
2022/10/12 13:37:45;;;;;;;;;49.00;41.00;;;;;25.94;39.02;100005.97;4950752;28;8864;-75
2022/10/12 13:40:35;;;;;;;;;47.50;40.00;;;;;25.98;39.21;100007.53;4969777;28;8870;-74
2022/10/12 13:43:28;;;;;;;;;49.50;40.75;;;;;25.98;39.23;100002.16;4953118;28;8871;-75
2022/10/12 13:45:57;;;;;;;;;54.50;44.00;;;;;25.88;39.46;100004.47;4980393;28;9592;-74
2022/10/12 13:48:26;;;;;;;;;47.25;40.25;;;;;25.87;39.38;100001.88;5015008;28;9617;-73
2022/10/12 13:51:26;;;;;;;;;49.50;40.00;;;;;25.93;39.42;100001.56;5047654;28;9046;-74
2022/10/12 13:53:55;;;;;;;;;45.75;39.00;;;;;25.75;39.43;100002.59;5027120;28;8863;-73
2022/10/12 13:56:28;;;;;;;;;44.00;37.75;;;;;25.74;39.21;100000.88;5027124;28;9015;-75
2022/10/12 13:58:59;;;;;;;;;42.75;37.50;;;;;25.65;39.14;100003.13;5027637;28;8844;-76
2022/10/12 14:01:32;;;;;;;;;44.25;37.50;;;;;25.26;39.94;99998.16;5037856;28;8852;-75
2022/10/12 14:04:06;;;;;;;;;48.75;38.50;;;;;25.33;39.99;100004.00;5026897;28;8868;-74
2022/10/12 14:06:37;;;;;;;;;49.00;40.75;;;;;25.31;40.28;99997.88;5027442;28;8897;-74
2022/10/12 14:09:09;;;;;;;;;48.50;40.75;;;;;25.26;40.02;100000.81;5027227;28;8859;-74
2022/10/12 14:11:38;;;;;;;;;48.00;39.50;;;;;25.13;40.32;100002.41;5042245;28;8845;-74